Sealuck 2 — 9HXU7 — position and weather

sailwx.info

Track history (hours):
 
Tides and Currents Weather Stations Pressure Air Temp Water Temp Dewpoint Dewpoint Depression Visibility Wind Speed Wind Dir Waves Ship Positions

Sealuck 2

Last reported at 2017-Nov-20 00:29 UTC. Time now 2017-Nov-22 11:18 UTC.
Position N 57°07' E 011°39'.

Length 190 m; draft 11.2 m.

Type: Ship. MMSI: 215713000.

Date/timePositionNaut miles runAvg speedWind from/ knotsBaromVisibWave heightAir tempDewpointWater temp
2017-Nov-20 00:29N 57°07' E 011°39'11510.2
2017-Nov-19 13:09N 55°13' E 011°06'1 9.1
2017-Nov-19 13:00N 55°12' E 011°05'4 8.3
2017-Nov-19 12:30N 55°09' E 010°60'5 9.1
2017-Nov-19 12:00N 55°05' E 010°59'510.0
2017-Nov-19 11:30N 54°60' E 010°59'510.1
2017-Nov-19 11:00N 54°56' E 010°53'4 8.7
2017-Nov-19 10:30N 54°52' E 010°50'5 9.7
2017-Nov-19 10:00N 54°47' E 010°49'510.6
2017-Nov-19 09:30N 54°42' E 010°47'5 9.9
2017-Nov-19 09:00N 54°39' E 010°53'510.6
2017-Nov-19 08:30N 54°36' E 011°01'510.6
2017-Nov-19 08:00N 54°36' E 011°10'510.7
2017-Nov-19 07:30N 54°34' E 011°19'510.7
2017-Nov-19 07:00N 54°32' E 011°27'510.9
2017-Nov-19 06:30N 54°29' E 011°35'510.9
2017-Nov-19 06:00N 54°27' E 011°44'611.0
2017-Nov-19 05:30N 54°27' E 011°54'510.9
2017-Nov-19 05:00N 54°27' E 012°03'510.0
2017-Nov-19 04:30N 54°28' E 012°12'611.1
2017-Nov-19 04:00N 54°33' E 012°14'4 8.8
2017-Nov-19 03:31N 54°37' E 012°17'57 9.6
2017-Nov-18 21:38N 55°00' E 013°46'4 9.3
2017-Nov-18 21:14N 55°02' E 013°52'3 9.4
2017-Nov-18 20:54N 55°02' E 013°57'5 8.9
2017-Nov-18 20:22N 55°04' E 014°05'3 9.2
2017-Nov-18 19:59N 55°07' E 014°09'5 9.3
2017-Nov-18 19:30N 55°10' E 014°14'5 9.3
2017-Nov-18 19:00N 55°14' E 014°19'5 9.4
2017-Nov-18 18:30N 55°18' E 014°24'5 9.4
2017-Nov-18 18:00N 55°22' E 014°29'510.3
2017-Nov-18 17:30N 55°26' E 014°35'510.9
2017-Nov-18 17:00N 55°28' E 014°43'510.6
2017-Nov-18 16:30N 55°31' E 014°51'711.0
2017-Nov-18 15:54N 55°34' E 015°01'411.2
2017-Nov-18 15:30N 55°36' E 015°08'511.0
2017-Nov-18 15:00N 55°39' E 015°17'510.6
2017-Nov-18 14:30N 55°42' E 015°25'510.4
2017-Nov-18 14:00N 55°44' E 015°33'510.2
2017-Nov-18 13:30N 55°47' E 015°41'5 9.5
2017-Nov-18 13:00N 55°49' E 015°48'4 8.7
2017-Nov-18 12:30N 55°51' E 015°55'4 8.8
2017-Nov-18 12:00N 55°54' E 016°01'5 9.1
2017-Nov-18 11:30N 55°56' E 016°08'5 9.3
2017-Nov-18 11:00N 55°58' E 016°16'5 9.3
2017-Nov-18 10:30N 56°01' E 016°23'5 9.3
2017-Nov-18 10:00N 56°03' E 016°30'5 9.5
2017-Nov-18 09:30N 56°06' E 016°37'5 9.7
2017-Nov-18 09:00N 56°08' E 016°44'510.0
2017-Nov-18 08:30N 56°11' E 016°51'510.2
2017-Nov-18 08:00N 56°14' E 016°59'27910.1
2017-Nov-17 04:26N 59°35' E 023°04'510.5
2017-Nov-17 04:00N 59°36' E 023°12'510.5
2017-Nov-17 03:30N 59°38' E 023°22'510.5
2017-Nov-17 03:00N 59°39' E 023°32'510.7
2017-Nov-17 02:30N 59°41' E 023°42'510.8
2017-Nov-17 02:00N 59°43' E 023°52'611.0
2017-Nov-17 01:29N 59°44' E 024°03'510.9
2017-Nov-17 01:00N 59°46' E 024°13'510.9
2017-Nov-17 00:31N 59°48' E 024°23'611.0
2017-Nov-17 00:00N 59°49' E 024°34'510.8
2017-Nov-16 23:30N 59°50' E 024°44'610.9
2017-Nov-16 22:59N 59°51' E 024°55'511.0
2017-Nov-16 22:30N 59°52' E 025°06'611.3
2017-Nov-16 22:00N 59°53' E 025°17'611.3
2017-Nov-16 21:30N 59°54' E 025°28'611.6
2017-Nov-16 20:58N 59°54' E 025°40'1611.7
2017-Nov-16 19:35N 59°58' E 026°12'111.7
2017-Nov-16 19:31N 59°59' E 026°14'611.8
2017-Nov-16 19:01N 60°00' E 026°25'611.6
2017-Nov-16 18:31N 60°01' E 026°36'611.7
2017-Nov-16 18:01N 60°01' E 026°48'611.6
2017-Nov-16 17:30N 59°60' E 026°59'611.1
2017-Nov-16 17:00N 60°01' E 027°10'611.6
2017-Nov-16 16:31N 60°04' E 027°20'611.7
2017-Nov-16 16:00N 60°07' E 027°30'611.6
2017-Nov-16 15:31N 60°10' E 027°40'510.5
2017-Nov-16 15:01N 60°12' E 027°50'611.2
2017-Nov-16 14:30N 60°10' E 028°01'611.2
2017-Nov-16 14:01N 60°09' E 028°12'510.9
2017-Nov-16 13:30N 60°06' E 028°21'511.0
2017-Nov-16 13:01N 60°04' E 028°31'5 9.3
2017-Nov-16 12:31N 59°60' E 028°36'5 9.6
2017-Nov-16 12:01N 59°55' E 028°33'510.2
2017-Nov-16 11:30N 59°51' E 028°27'510.8
2017-Nov-16 11:00N 59°46' E 028°24'4 8.0
2017-Nov-16 10:30N 59°42' E 028°25'0 0.7
2017-Nov-16 10:00N 59°41' E 028°26'0 0.0
2017-Nov-16 09:30N 59°41' E 028°26'0 0.0
2017-Nov-16 09:00N 59°41' E 028°26'0 0.0
2017-Nov-16 08:21N 59°41' E 028°26'0 0.0
2017-Nov-16 07:51N 59°41' E 028°26'0 0.0
2017-Nov-16 07:21N 59°41' E 028°26'0 0.0
2017-Nov-16 06:51N 59°41' E 028°26'0 0.0
2017-Nov-16 06:24N 59°41' E 028°26'0 0.0
2017-Nov-16 05:54N 59°41' E 028°26'0 0.0
2017-Nov-16 05:24N 59°41' E 028°26'0 0.0
2017-Nov-16 04:54N 59°41' E 028°26'0 0.0
2017-Nov-16 04:24N 59°41' E 028°26'0 0.0
2017-Nov-16 03:54N 59°41' E 028°26'0 0.0
2017-Nov-16 03:24N 59°41' E 028°26'0 0.0
2017-Nov-16 02:54N 59°41' E 028°26'0 0.0
2017-Nov-16 02:09N 59°41' E 028°26'0 0.0
2017-Nov-16 01:57N 59°41' E 028°26'0 0.0
2017-Nov-16 01:27N 59°41' E 028°26'0 0.0
2017-Nov-16 00:57N 59°41' E 028°26'0 0.0
2017-Nov-16 00:27N 59°41' E 028°26'0 0.0
2017-Nov-15 23:57N 59°41' E 028°26'0 0.0
2017-Nov-15 23:24N 59°41' E 028°26'0 0.0
2017-Nov-15 22:57N 59°41' E 028°26'0 0.0
2017-Nov-15 22:27N 59°41' E 028°26'0 0.0
2017-Nov-15 21:57N 59°41' E 028°26'0 0.0
2017-Nov-15 21:27N 59°41' E 028°26'0 0.0
2017-Nov-15 21:00N 59°41' E 028°26'0 0.0
2017-Nov-15 20:30N 59°41' E 028°26'0 0.0
2017-Nov-15 20:00N 59°41' E 028°26'0 0.0
2017-Nov-15 19:30N 59°41' E 028°26'0 0.0
2017-Nov-15 19:00N 59°41' E 028°26'0 0.0
2017-Nov-15 18:30N 59°41' E 028°26'0 0.0
2017-Nov-15 18:00N 59°41' E 028°26'0 0.0
2017-Nov-15 17:30N 59°41' E 028°26'0 0.0
2017-Nov-15 17:00N 59°41' E 028°26'0 0.0
2017-Nov-15 16:30N 59°41' E 028°26'0 0.0
2017-Nov-15 15:59N 59°41' E 028°26'0 0.0
2017-Nov-15 15:26N 59°41' E 028°26'0 0.0
2017-Nov-15 14:59N 59°41' E 028°26'0 0.0
2017-Nov-15 14:29N 59°41' E 028°26'0 0.0
2017-Nov-15 13:59N 59°41' E 028°26'0 0.0
2017-Nov-15 13:29N 59°41' E 028°26'0 0.0
2017-Nov-15 12:59N 59°41' E 028°26'0 0.0
2017-Nov-15 12:29N 59°41' E 028°26'0 0.0
2017-Nov-15 11:59N 59°41' E 028°26'0 0.0
2017-Nov-15 11:29N 59°41' E 028°26'0 0.0
2017-Nov-15 10:59N 59°41' E 028°26'0 0.0
2017-Nov-15 10:29N 59°41' E 028°26'0 0.0
2017-Nov-15 09:50N 59°41' E 028°26'0 0.0
2017-Nov-15 09:29N 59°41' E 028°26'0 0.0
2017-Nov-15 08:50N 59°41' E 028°26'0 0.0
2017-Nov-15 08:20N 59°41' E 028°26'0 0.0
2017-Nov-15 07:50N 59°41' E 028°26'0 0.0
2017-Nov-15 07:20N 59°41' E 028°26'0 0.0
2017-Nov-15 06:50N 59°41' E 028°26'0 0.0
2017-Nov-15 06:20N 59°41' E 028°26'0 0.0
2017-Nov-15 05:53N 59°41' E 028°26'0 0.0
2017-Nov-15 05:23N 59°41' E 028°26'0 0.0
2017-Nov-15 04:53N 59°41' E 028°26'0 0.0
2017-Nov-15 04:23N 59°41' E 028°26'0 0.0
2017-Nov-15 03:53N 59°41' E 028°26'0 0.0
2017-Nov-15 03:23N 59°41' E 028°26'0 0.0
2017-Nov-15 02:53N 59°41' E 028°26'0 0.0
2017-Nov-15 02:23N 59°41' E 028°26'0 0.0
2017-Nov-15 01:53N 59°41' E 028°26'0 0.0
2017-Nov-15 01:26N 59°41' E 028°26'0 0.0
2017-Nov-15 00:56N 59°41' E 028°26'0 0.0
2017-Nov-15 00:26N 59°41' E 028°26'0 0.0
2017-Nov-14 23:56N 59°41' E 028°26'0 0.0
2017-Nov-14 23:26N 59°41' E 028°26'0 0.0
2017-Nov-14 22:56N 59°41' E 028°26'0 0.0
2017-Nov-14 22:26N 59°41' E 028°26'0 0.0
2017-Nov-14 21:56N 59°41' E 028°26'0 0.0
2017-Nov-14 21:26N 59°41' E 028°26'0 0.0
2017-Nov-14 20:56N 59°41' E 028°26'0 0.0
2017-Nov-14 20:29N 59°41' E 028°26'0 0.0
2017-Nov-14 19:59N 59°41' E 028°26'0 0.0
2017-Nov-14 19:29N 59°41' E 028°26'0 0.0
2017-Nov-14 18:59N 59°41' E 028°26'0 0.0
2017-Nov-14 18:29N 59°41' E 028°26'0 0.0
2017-Nov-14 17:56N 59°41' E 028°26'0 0.0
2017-Nov-14 17:29N 59°41' E 028°26'0 0.0
2017-Nov-14 16:59N 59°41' E 028°26'0 0.0
2017-Nov-14 16:29N 59°41' E 028°26'0 0.0
2017-Nov-14 15:59N 59°41' E 028°26'0 0.0
2017-Nov-14 15:29N 59°41' E 028°26'0 0.0
2017-Nov-14 14:59N 59°41' E 028°26'0 0.0
2017-Nov-14 14:27N 59°41' E 028°26'0 0.0
2017-Nov-14 13:59N 59°41' E 028°26'0 0.0
2017-Nov-14 13:29N 59°41' E 028°26'0 0.0
2017-Nov-14 12:59N 59°41' E 028°26'0 0.0
2017-Nov-14 12:29N 59°41' E 028°26'0 0.2
2017-Nov-14 12:00N 59°42' E 028°26'2 3.3
2017-Nov-14 11:30N 59°43' E 028°23'5 9.9
2017-Nov-14 11:00N 59°48' E 028°25'612.1
2017-Nov-14 10:30N 59°53' E 028°30'4 8.0
2017-Nov-14 10:01N 59°57' E 028°34'2 5.0
2017-Nov-14 09:31N 59°59' E 028°35'3 6.8
2017-Nov-14 09:00N 60°02' E 028°33'713.5
2017-Nov-14 08:31N 60°05' E 028°21'713.9
2017-Nov-14 08:00N 60°08' E 028°08'714.2
2017-Nov-14 07:30N 60°10' E 027°55'713.1
2017-Nov-14 07:00N 60°09' E 027°41'714.0
2017-Nov-14 06:30N 60°06' E 027°29'714.1
2017-Nov-14 06:00N 60°02' E 027°17'714.1
2017-Nov-14 05:30N 59°58' E 027°05'713.7
2017-Nov-14 05:01N 59°59' E 026°52'713.9
2017-Nov-14 04:31N 59°59' E 026°38'714.0
2017-Nov-14 04:01N 59°57' E 026°24'3014.1
2017-Nov-14 01:53N 59°50' E 025°26'514.2
2017-Nov-14 01:30N 59°49' E 025°15'714.0
2017-Nov-14 01:00N 59°48' E 025°02'714.0
2017-Nov-14 00:31N 59°46' E 024°48'714.4
2017-Nov-14 00:01N 59°45' E 024°34'714.2
2017-Nov-13 23:31N 59°43' E 024°21'714.2
2017-Nov-13 23:00N 59°41' E 024°07'714.2
2017-Nov-13 22:30N 59°39' E 023°53'714.2
2017-Nov-13 22:00N 59°36' E 023°40'28113.5
2017-Nov-13 01:16N 56°19' E 017°25'1313.8
2017-Nov-13 00:20N 56°11' E 017°06'513.7
2017-Nov-12 23:58N 56°08' E 016°59'613.6
2017-Nov-12 23:30N 56°04' E 016°50'713.4
2017-Nov-12 23:00N 56°00' E 016°40'713.3
2017-Nov-12 22:30N 55°57' E 016°30'713.2
2017-Nov-12 22:00N 55°55' E 016°19'713.3
2017-Nov-12 21:30N 55°51' E 016°09'713.5
2017-Nov-12 21:00N 55°48' E 015°58'713.6
2017-Nov-12 20:30N 55°45' E 015°48'713.8
2017-Nov-12 20:00N 55°41' E 015°37'713.8
2017-Nov-12 19:30N 55°38' E 015°27'713.9
2017-Nov-12 19:00N 55°34' E 015°16'713.9
2017-Nov-12 18:30N 55°31' E 015°05'713.8
2017-Nov-12 18:00N 55°28' E 014°54'713.9
2017-Nov-12 17:31N 55°25' E 014°43'713.6
2017-Nov-12 17:00N 55°20' E 014°35'713.7
2017-Nov-12 16:30N 55°15' E 014°27'713.4
2017-Nov-12 16:01N 55°11' E 014°18'813.8
2017-Nov-12 15:27N 55°10' E 014°05'2714.0
2017-Nov-12 13:31N 55°13' E 013°17'014.3
2017-Nov-12 13:30N 55°13' E 013°17'714.4
2017-Nov-12 13:00N 55°13' E 013°04'714.3
2017-Nov-12 12:30N 55°15' E 012°52'714.1
2017-Nov-12 12:00N 55°18' E 012°41'611.0
2017-Nov-12 11:30N 55°23' E 012°39'612.9
2017-Nov-12 11:00N 55°29' E 012°41'510.4
2017-Nov-12 10:30N 55°34' E 012°42'612.0
2017-Nov-12 10:00N 55°40' E 012°41'714.0
2017-Nov-12 09:31N 55°47' E 012°42'713.4
2017-Nov-12 09:01N 55°54' E 012°39'714.0
2017-Nov-12 08:30N 56°01' E 012°40'714.1
2017-Nov-12 08:01N 56°06' E 012°32'611.3
2017-Nov-12 07:31N 56°10' E 012°24'7212.5
2017-Nov-12 01:44N 57°16' E 011°32'313.4
2017-Nov-12 01:30N 57°19' E 011°30'713.9
2017-Nov-12 01:00N 57°26' E 011°25'713.2
2017-Nov-12 00:30N 57°31' E 011°18'714.2
2017-Nov-11 23:59N 57°36' E 011°07'815.0
2017-Nov-11 23:29N 57°40' E 010°56'714.7
2017-Nov-11 23:00N 57°45' E 010°47'714.0
2017-Nov-11 22:30N 57°50' E 010°36'714.8
2017-Nov-11 22:00N 57°49' E 010°23'335 8.5
2017-Nov-10 06:42N 53°18' E 004°36'313.8
2017-Nov-10 06:29N 53°15' E 004°34'713.7
2017-Nov-10 06:00N 53°09' E 004°29'713.6
2017-Nov-10 05:30N 53°03' E 004°25'713.7
2017-Nov-10 05:00N 52°57' E 004°20'713.6
2017-Nov-10 04:30N 52°51' E 004°14'713.5
2017-Nov-10 04:00N 52°45' E 004°09'713.3
2017-Nov-10 03:30N 52°38' E 004°07'612.2
2017-Nov-10 03:00N 52°32' E 004°09'612.8
2017-Nov-10 02:30N 52°30' E 004°19'611.1
2017-Nov-10 02:00N 52°29' E 004°28'4 8.9
2017-Nov-10 01:30N 52°28' E 004°35'1 1.8
2017-Nov-10 01:01N 52°28' E 004°37'1 2.6
2017-Nov-10 00:30N 52°28' E 004°39'  
Track history (hours):
 
Tides and Currents Weather Stations Pressure Air Temp Water Temp Dewpoint Dewpoint Depression Visibility Wind Speed Wind Dir Waves Ship Positions

Sealuck 2

Last reported at 2017-Nov-20 00:29 UTC. Time now 2017-Nov-22 11:18 UTC.
Position N 57°07' E 011°39'.

Length 190 m; draft 11.2 m.

Type: Ship. MMSI: 215713000.

Date/timePositionNaut miles runAvg speedWind from/ knotsBaromVisibWave heightAir tempDewpointWater temp
2017-Nov-20 00:29N 57°07' E 011°39'11510.2
2017-Nov-19 13:09N 55°13' E 011°06'1 9.1
2017-Nov-19 13:00N 55°12' E 011°05'4 8.3
2017-Nov-19 12:30N 55°09' E 010°60'5 9.1
2017-Nov-19 12:00N 55°05' E 010°59'510.0
2017-Nov-19 11:30N 54°60' E 010°59'510.1
2017-Nov-19 11:00N 54°56' E 010°53'4 8.7
2017-Nov-19 10:30N 54°52' E 010°50'5 9.7
2017-Nov-19 10:00N 54°47' E 010°49'510.6
2017-Nov-19 09:30N 54°42' E 010°47'5 9.9
2017-Nov-19 09:00N 54°39' E 010°53'510.6
2017-Nov-19 08:30N 54°36' E 011°01'510.6
2017-Nov-19 08:00N 54°36' E 011°10'510.7
2017-Nov-19 07:30N 54°34' E 011°19'510.7
2017-Nov-19 07:00N 54°32' E 011°27'510.9
2017-Nov-19 06:30N 54°29' E 011°35'510.9
2017-Nov-19 06:00N 54°27' E 011°44'611.0
2017-Nov-19 05:30N 54°27' E 011°54'510.9
2017-Nov-19 05:00N 54°27' E 012°03'510.0
2017-Nov-19 04:30N 54°28' E 012°12'611.1
2017-Nov-19 04:00N 54°33' E 012°14'4 8.8
2017-Nov-19 03:31N 54°37' E 012°17'57 9.6
2017-Nov-18 21:38N 55°00' E 013°46'4 9.3
2017-Nov-18 21:14N 55°02' E 013°52'3 9.4
2017-Nov-18 20:54N 55°02' E 013°57'5 8.9
2017-Nov-18 20:22N 55°04' E 014°05'3 9.2
2017-Nov-18 19:59N 55°07' E 014°09'5 9.3
2017-Nov-18 19:30N 55°10' E 014°14'5 9.3
2017-Nov-18 19:00N 55°14' E 014°19'5 9.4
2017-Nov-18 18:30N 55°18' E 014°24'5 9.4
2017-Nov-18 18:00N 55°22' E 014°29'510.3
2017-Nov-18 17:30N 55°26' E 014°35'510.9
2017-Nov-18 17:00N 55°28' E 014°43'510.6
2017-Nov-18 16:30N 55°31' E 014°51'711.0
2017-Nov-18 15:54N 55°34' E 015°01'411.2
2017-Nov-18 15:30N 55°36' E 015°08'511.0
2017-Nov-18 15:00N 55°39' E 015°17'510.6
2017-Nov-18 14:30N 55°42' E 015°25'510.4
2017-Nov-18 14:00N 55°44' E 015°33'510.2
2017-Nov-18 13:30N 55°47' E 015°41'5 9.5
2017-Nov-18 13:00N 55°49' E 015°48'4 8.7
2017-Nov-18 12:30N 55°51' E 015°55'4 8.8
2017-Nov-18 12:00N 55°54' E 016°01'5 9.1
2017-Nov-18 11:30N 55°56' E 016°08'5 9.3
2017-Nov-18 11:00N 55°58' E 016°16'5 9.3
2017-Nov-18 10:30N 56°01' E 016°23'5 9.3
2017-Nov-18 10:00N 56°03' E 016°30'5 9.5
2017-Nov-18 09:30N 56°06' E 016°37'5 9.7
2017-Nov-18 09:00N 56°08' E 016°44'510.0
2017-Nov-18 08:30N 56°11' E 016°51'510.2
2017-Nov-18 08:00N 56°14' E 016°59'27910.1
2017-Nov-17 04:26N 59°35' E 023°04'510.5
2017-Nov-17 04:00N 59°36' E 023°12'510.5
2017-Nov-17 03:30N 59°38' E 023°22'510.5
2017-Nov-17 03:00N 59°39' E 023°32'510.7
2017-Nov-17 02:30N 59°41' E 023°42'510.8
2017-Nov-17 02:00N 59°43' E 023°52'611.0
2017-Nov-17 01:29N 59°44' E 024°03'510.9
2017-Nov-17 01:00N 59°46' E 024°13'510.9
2017-Nov-17 00:31N 59°48' E 024°23'611.0
2017-Nov-17 00:00N 59°49' E 024°34'510.8
2017-Nov-16 23:30N 59°50' E 024°44'610.9
2017-Nov-16 22:59N 59°51' E 024°55'511.0
2017-Nov-16 22:30N 59°52' E 025°06'611.3
2017-Nov-16 22:00N 59°53' E 025°17'611.3
2017-Nov-16 21:30N 59°54' E 025°28'611.6
2017-Nov-16 20:58N 59°54' E 025°40'1611.7
2017-Nov-16 19:35N 59°58' E 026°12'111.7
2017-Nov-16 19:31N 59°59' E 026°14'611.8
2017-Nov-16 19:01N 60°00' E 026°25'611.6
2017-Nov-16 18:31N 60°01' E 026°36'611.7
2017-Nov-16 18:01N 60°01' E 026°48'611.6
2017-Nov-16 17:30N 59°60' E 026°59'611.1
2017-Nov-16 17:00N 60°01' E 027°10'611.6
2017-Nov-16 16:31N 60°04' E 027°20'611.7
2017-Nov-16 16:00N 60°07' E 027°30'611.6
2017-Nov-16 15:31N 60°10' E 027°40'510.5
2017-Nov-16 15:01N 60°12' E 027°50'611.2
2017-Nov-16 14:30N 60°10' E 028°01'611.2
2017-Nov-16 14:01N 60°09' E 028°12'510.9
2017-Nov-16 13:30N 60°06' E 028°21'511.0
2017-Nov-16 13:01N 60°04' E 028°31'5 9.3
2017-Nov-16 12:31N 59°60' E 028°36'5 9.6
2017-Nov-16 12:01N 59°55' E 028°33'510.2
2017-Nov-16 11:30N 59°51' E 028°27'510.8
2017-Nov-16 11:00N 59°46' E 028°24'4 8.0
2017-Nov-16 10:30N 59°42' E 028°25'0 0.7
2017-Nov-16 10:00N 59°41' E 028°26'0 0.0
2017-Nov-16 09:30N 59°41' E 028°26'0 0.0
2017-Nov-16 09:00N 59°41' E 028°26'0 0.0
2017-Nov-16 08:21N 59°41' E 028°26'0 0.0
2017-Nov-16 07:51N 59°41' E 028°26'0 0.0
2017-Nov-16 07:21N 59°41' E 028°26'0 0.0
2017-Nov-16 06:51N 59°41' E 028°26'0 0.0
2017-Nov-16 06:24N 59°41' E 028°26'0 0.0
2017-Nov-16 05:54N 59°41' E 028°26'0 0.0
2017-Nov-16 05:24N 59°41' E 028°26'0 0.0
2017-Nov-16 04:54N 59°41' E 028°26'0 0.0
2017-Nov-16 04:24N 59°41' E 028°26'0 0.0
2017-Nov-16 03:54N 59°41' E 028°26'0 0.0
2017-Nov-16 03:24N 59°41' E 028°26'0 0.0
2017-Nov-16 02:54N 59°41' E 028°26'0 0.0
2017-Nov-16 02:09N 59°41' E 028°26'0 0.0
2017-Nov-16 01:57N 59°41' E 028°26'0 0.0
2017-Nov-16 01:27N 59°41' E 028°26'0 0.0
2017-Nov-16 00:57N 59°41' E 028°26'0 0.0
2017-Nov-16 00:27N 59°41' E 028°26'0 0.0
2017-Nov-15 23:57N 59°41' E 028°26'0 0.0
2017-Nov-15 23:24N 59°41' E 028°26'0 0.0
2017-Nov-15 22:57N 59°41' E 028°26'0 0.0
2017-Nov-15 22:27N 59°41' E 028°26'0 0.0
2017-Nov-15 21:57N 59°41' E 028°26'0 0.0
2017-Nov-15 21:27N 59°41' E 028°26'0 0.0
2017-Nov-15 21:00N 59°41' E 028°26'0 0.0
2017-Nov-15 20:30N 59°41' E 028°26'0 0.0
2017-Nov-15 20:00N 59°41' E 028°26'0 0.0
2017-Nov-15 19:30N 59°41' E 028°26'0 0.0
2017-Nov-15 19:00N 59°41' E 028°26'0 0.0
2017-Nov-15 18:30N 59°41' E 028°26'0 0.0
2017-Nov-15 18:00N 59°41' E 028°26'0 0.0
2017-Nov-15 17:30N 59°41' E 028°26'0 0.0
2017-Nov-15 17:00N 59°41' E 028°26'0 0.0
2017-Nov-15 16:30N 59°41' E 028°26'0 0.0
2017-Nov-15 15:59N 59°41' E 028°26'0 0.0
2017-Nov-15 15:26N 59°41' E 028°26'0 0.0
2017-Nov-15 14:59N 59°41' E 028°26'0 0.0
2017-Nov-15 14:29N 59°41' E 028°26'0 0.0
2017-Nov-15 13:59N 59°41' E 028°26'0 0.0
2017-Nov-15 13:29N 59°41' E 028°26'0 0.0
2017-Nov-15 12:59N 59°41' E 028°26'0 0.0
2017-Nov-15 12:29N 59°41' E 028°26'0 0.0
2017-Nov-15 11:59N 59°41' E 028°26'0 0.0
2017-Nov-15 11:29N 59°41' E 028°26'0 0.0
2017-Nov-15 10:59N 59°41' E 028°26'0 0.0
2017-Nov-15 10:29N 59°41' E 028°26'0 0.0
2017-Nov-15 09:50N 59°41' E 028°26'0 0.0
2017-Nov-15 09:29N 59°41' E 028°26'0 0.0
2017-Nov-15 08:50N 59°41' E 028°26'0 0.0
2017-Nov-15 08:20N 59°41' E 028°26'0 0.0
2017-Nov-15 07:50N 59°41' E 028°26'0 0.0
2017-Nov-15 07:20N 59°41' E 028°26'0 0.0
2017-Nov-15 06:50N 59°41' E 028°26'0 0.0
2017-Nov-15 06:20N 59°41' E 028°26'0 0.0
2017-Nov-15 05:53N 59°41' E 028°26'0 0.0
2017-Nov-15 05:23N 59°41' E 028°26'0 0.0
2017-Nov-15 04:53N 59°41' E 028°26'0 0.0
2017-Nov-15 04:23N 59°41' E 028°26'0 0.0
2017-Nov-15 03:53N 59°41' E 028°26'0 0.0
2017-Nov-15 03:23N 59°41' E 028°26'0 0.0
2017-Nov-15 02:53N 59°41' E 028°26'0 0.0
2017-Nov-15 02:23N 59°41' E 028°26'0 0.0
2017-Nov-15 01:53N 59°41' E 028°26'0 0.0
2017-Nov-15 01:26N 59°41' E 028°26'0 0.0
2017-Nov-15 00:56N 59°41' E 028°26'0 0.0
2017-Nov-15 00:26N 59°41' E 028°26'0 0.0
2017-Nov-14 23:56N 59°41' E 028°26'0 0.0
2017-Nov-14 23:26N 59°41' E 028°26'0 0.0
2017-Nov-14 22:56N 59°41' E 028°26'0 0.0
2017-Nov-14 22:26N 59°41' E 028°26'0 0.0
2017-Nov-14 21:56N 59°41' E 028°26'0 0.0
2017-Nov-14 21:26N 59°41' E 028°26'0 0.0
2017-Nov-14 20:56N 59°41' E 028°26'0 0.0
2017-Nov-14 20:29N 59°41' E 028°26'0 0.0
2017-Nov-14 19:59N 59°41' E 028°26'0 0.0
2017-Nov-14 19:29N 59°41' E 028°26'0 0.0
2017-Nov-14 18:59N 59°41' E 028°26'0 0.0
2017-Nov-14 18:29N 59°41' E 028°26'0 0.0
2017-Nov-14 17:56N 59°41' E 028°26'0 0.0
2017-Nov-14 17:29N 59°41' E 028°26'0 0.0
2017-Nov-14 16:59N 59°41' E 028°26'0 0.0
2017-Nov-14 16:29N 59°41' E 028°26'0 0.0
2017-Nov-14 15:59N 59°41' E 028°26'0 0.0
2017-Nov-14 15:29N 59°41' E 028°26'0 0.0
2017-Nov-14 14:59N 59°41' E 028°26'0 0.0
2017-Nov-14 14:27N 59°41' E 028°26'0 0.0
2017-Nov-14 13:59N 59°41' E 028°26'0 0.0
2017-Nov-14 13:29N 59°41' E 028°26'0 0.0
2017-Nov-14 12:59N 59°41' E 028°26'0 0.0
2017-Nov-14 12:29N 59°41' E 028°26'0 0.2
2017-Nov-14 12:00N 59°42' E 028°26'2 3.3
2017-Nov-14 11:30N 59°43' E 028°23'5 9.9
2017-Nov-14 11:00N 59°48' E 028°25'612.1
2017-Nov-14 10:30N 59°53' E 028°30'4 8.0
2017-Nov-14 10:01N 59°57' E 028°34'2 5.0
2017-Nov-14 09:31N 59°59' E 028°35'3 6.8
2017-Nov-14 09:00N 60°02' E 028°33'713.5
2017-Nov-14 08:31N 60°05' E 028°21'713.9
2017-Nov-14 08:00N 60°08' E 028°08'714.2
2017-Nov-14 07:30N 60°10' E 027°55'713.1
2017-Nov-14 07:00N 60°09' E 027°41'714.0
2017-Nov-14 06:30N 60°06' E 027°29'714.1
2017-Nov-14 06:00N 60°02' E 027°17'714.1
2017-Nov-14 05:30N 59°58' E 027°05'713.7
2017-Nov-14 05:01N 59°59' E 026°52'713.9
2017-Nov-14 04:31N 59°59' E 026°38'714.0
2017-Nov-14 04:01N 59°57' E 026°24'3014.1
2017-Nov-14 01:53N 59°50' E 025°26'514.2
2017-Nov-14 01:30N 59°49' E 025°15'714.0
2017-Nov-14 01:00N 59°48' E 025°02'714.0
2017-Nov-14 00:31N 59°46' E 024°48'714.4
2017-Nov-14 00:01N 59°45' E 024°34'714.2
2017-Nov-13 23:31N 59°43' E 024°21'714.2
2017-Nov-13 23:00N 59°41' E 024°07'714.2
2017-Nov-13 22:30N 59°39' E 023°53'714.2
2017-Nov-13 22:00N 59°36' E 023°40'28113.5
2017-Nov-13 01:16N 56°19' E 017°25'1313.8
2017-Nov-13 00:20N 56°11' E 017°06'513.7
2017-Nov-12 23:58N 56°08' E 016°59'613.6
2017-Nov-12 23:30N 56°04' E 016°50'713.4
2017-Nov-12 23:00N 56°00' E 016°40'713.3
2017-Nov-12 22:30N 55°57' E 016°30'713.2
2017-Nov-12 22:00N 55°55' E 016°19'713.3
2017-Nov-12 21:30N 55°51' E 016°09'713.5
2017-Nov-12 21:00N 55°48' E 015°58'713.6
2017-Nov-12 20:30N 55°45' E 015°48'713.8
2017-Nov-12 20:00N 55°41' E 015°37'713.8
2017-Nov-12 19:30N 55°38' E 015°27'713.9
2017-Nov-12 19:00N 55°34' E 015°16'713.9
2017-Nov-12 18:30N 55°31' E 015°05'713.8
2017-Nov-12 18:00N 55°28' E 014°54'713.9
2017-Nov-12 17:31N 55°25' E 014°43'713.6
2017-Nov-12 17:00N 55°20' E 014°35'713.7
2017-Nov-12 16:30N 55°15' E 014°27'713.4
2017-Nov-12 16:01N 55°11' E 014°18'813.8
2017-Nov-12 15:27N 55°10' E 014°05'2714.0
2017-Nov-12 13:31N 55°13' E 013°17'014.3
2017-Nov-12 13:30N 55°13' E 013°17'714.4
2017-Nov-12 13:00N 55°13' E 013°04'714.3
2017-Nov-12 12:30N 55°15' E 012°52'714.1
2017-Nov-12 12:00N 55°18' E 012°41'611.0
2017-Nov-12 11:30N 55°23' E 012°39'612.9
2017-Nov-12 11:00N 55°29' E 012°41'510.4
2017-Nov-12 10:30N 55°34' E 012°42'612.0
2017-Nov-12 10:00N 55°40' E 012°41'714.0
2017-Nov-12 09:31N 55°47' E 012°42'713.4
2017-Nov-12 09:01N 55°54' E 012°39'714.0
2017-Nov-12 08:30N 56°01' E 012°40'714.1
2017-Nov-12 08:01N 56°06' E 012°32'611.3
2017-Nov-12 07:31N 56°10' E 012°24'7212.5
2017-Nov-12 01:44N 57°16' E 011°32'313.4
2017-Nov-12 01:30N 57°19' E 011°30'713.9
2017-Nov-12 01:00N 57°26' E 011°25'713.2
2017-Nov-12 00:30N 57°31' E 011°18'714.2
2017-Nov-11 23:59N 57°36' E 011°07'815.0
2017-Nov-11 23:29N 57°40' E 010°56'714.7
2017-Nov-11 23:00N 57°45' E 010°47'714.0
2017-Nov-11 22:30N 57°50' E 010°36'714.8
2017-Nov-11 22:00N 57°49' E 010°23'335 8.5
2017-Nov-10 06:42N 53°18' E 004°36'313.8
2017-Nov-10 06:29N 53°15' E 004°34'713.7
2017-Nov-10 06:00N 53°09' E 004°29'713.6
2017-Nov-10 05:30N 53°03' E 004°25'713.7
2017-Nov-10 05:00N 52°57' E 004°20'713.6
2017-Nov-10 04:30N 52°51' E 004°14'713.5
2017-Nov-10 04:00N 52°45' E 004°09'713.3
2017-Nov-10 03:30N 52°38' E 004°07'612.2
2017-Nov-10 03:00N 52°32' E 004°09'612.8
2017-Nov-10 02:30N 52°30' E 004°19'611.1
2017-Nov-10 02:00N 52°29' E 004°28'4 8.9
2017-Nov-10 01:30N 52°28' E 004°35'1 1.8
2017-Nov-10 01:01N 52°28' E 004°37'1 2.6
2017-Nov-10 00:30N 52°28' E 004°39'  

Dump ship's entire track history